createdAt,value
2023-04-13T00:03:20.585Z,100.00
2023-04-13T00:08:23.949Z,100.00
2023-04-13T00:13:26.641Z,100.00
2023-04-13T00:18:29.252Z,100.00
2023-04-13T00:23:31.928Z,100.00
2023-04-13T00:28:34.582Z,100.00
2023-04-13T00:33:37.267Z,100.00
2023-04-13T00:38:40.586Z,100.00
2023-04-13T00:43:44.896Z,100.00
2023-04-13T00:48:48.267Z,100.00
2023-04-13T00:53:51.650Z,100.00
2023-04-13T00:58:54.032Z,100.00
2023-04-13T01:03:57.249Z,100.00
2023-04-13T01:08:59.790Z,100.00
2023-04-13T01:14:02.307Z,100.00
2023-04-13T01:19:06.020Z,100.00
2023-04-13T01:24:08.301Z,100.00
2023-04-13T01:29:11.211Z,100.00
2023-04-13T01:34:14.411Z,100.00
2023-04-13T01:39:17.372Z,100.00
2023-04-13T01:44:19.758Z,100.00
2023-04-13T01:49:22.730Z,100.00
2023-04-13T01:54:25.576Z,100.00
2023-04-13T01:59:28.647Z,100.00
2023-04-13T02:04:31.877Z,100.00
2023-04-13T02:09:35.218Z,100.00
2023-04-13T02:14:37.512Z,100.00
2023-04-13T02:19:39.996Z,100.00
2023-04-13T02:24:42.416Z,100.00
2023-04-13T02:29:45.724Z,100.00
2023-04-13T02:34:49.487Z,100.00
2023-04-13T02:39:52.741Z,100.00
2023-04-13T02:44:55.478Z,100.00
2023-04-13T02:49:58.080Z,100.00
2023-04-13T02:55:01.140Z,100.00
2023-04-13T03:00:10.081Z,100.00
2023-04-13T03:05:12.831Z,100.00
2023-04-13T03:10:16.089Z,100.00
2023-04-13T03:15:18.927Z,100.00
2023-04-13T03:20:23.782Z,100.00
2023-04-13T03:25:26.515Z,100.00
2023-04-13T03:30:38.871Z,100.00
2023-04-13T03:35:41.182Z,100.00
2023-04-13T03:40:44.238Z,100.00
2023-04-13T03:45:46.596Z,100.00
2023-04-13T03:50:49.056Z,100.00
2023-04-13T03:55:51.865Z,100.00
2023-04-13T04:00:55.054Z,100.00
2023-04-13T04:05:57.742Z,100.00
2023-04-13T04:11:00.877Z,100.00
2023-04-13T04:16:07.003Z,100.00
2023-04-13T04:21:11.197Z,100.00
2023-04-13T04:26:14.936Z,100.00
2023-04-13T04:31:18.182Z,100.00
2023-04-13T04:36:21.477Z,100.00
2023-04-13T04:41:37.973Z,100.00
2023-04-13T04:46:41.826Z,100.00
2023-04-13T04:51:44.483Z,100.00
2023-04-13T04:56:58.018Z,100.00
2023-04-13T05:02:01.237Z,100.00
2023-04-13T05:07:04.391Z,100.00
2023-04-13T05:12:07.477Z,100.00
2023-04-13T05:17:10.813Z,100.00
2023-04-13T05:22:14.597Z,100.00
2023-04-13T05:27:17.423Z,100.00
2023-04-13T05:32:20.966Z,100.00
2023-04-13T05:37:24.243Z,100.00
2023-04-13T05:42:26.970Z,100.00
2023-04-13T05:47:29.850Z,100.00
2023-04-13T05:52:32.701Z,100.00
2023-04-13T05:57:34.987Z,100.00
2023-04-13T06:02:40.264Z,100.00
2023-04-13T06:07:44.851Z,100.00
2023-04-13T06:12:48.872Z,100.00
2023-04-13T06:17:52.082Z,100.00
2023-04-13T06:22:54.829Z,100.00
2023-04-13T06:27:57.316Z,100.00
2023-04-13T06:32:59.804Z,100.00
2023-04-13T06:38:02.628Z,100.00
2023-04-13T06:43:08.975Z,100.00
2023-04-13T06:48:17.188Z,100.00
2023-04-13T06:53:19.591Z,100.00
2023-04-13T06:58:23.176Z,100.00
2023-04-13T07:03:26.341Z,100.00
2023-04-13T07:08:33.416Z,100.00
2023-04-13T07:13:35.972Z,100.00
2023-04-13T07:18:38.465Z,100.00
2023-04-13T07:23:42.479Z,100.00
2023-04-13T07:28:45.275Z,100.00
2023-04-13T07:33:47.731Z,100.00
2023-04-13T07:38:50.322Z,100.00
2023-04-13T07:43:52.826Z,100.00
2023-04-13T07:48:55.473Z,100.00
2023-04-13T07:53:58.161Z,100.00
2023-04-13T07:59:01.173Z,100.00
2023-04-13T08:04:04.194Z,100.00
2023-04-13T08:09:08.040Z,100.00
2023-04-13T08:14:11.850Z,100.00
2023-04-13T08:19:14.424Z,100.00
2023-04-13T08:24:16.955Z,100.00
2023-04-13T08:29:24.312Z,100.00
2023-04-13T08:34:27.452Z,100.00
2023-04-13T08:39:30.059Z,100.00
2023-04-13T08:44:32.532Z,100.00
2023-04-13T08:49:35.858Z,100.00
2023-04-13T08:54:38.228Z,98.04
2023-04-13T08:59:42.246Z,88.44
2023-04-13T09:04:46.145Z,90.13
2023-04-13T09:09:48.990Z,88.60
2023-04-13T09:14:51.477Z,79.72
2023-04-13T09:19:54.387Z,84.44
2023-04-13T09:24:57.075Z,84.75
2023-04-13T09:30:01.491Z,78.75
2023-04-13T09:35:05.590Z,72.38
2023-04-13T09:40:09.874Z,74.71
2023-04-13T09:45:12.294Z,68.49
2023-04-13T09:50:15.527Z,67.21
2023-04-13T09:55:18.802Z,63.73
2023-04-13T10:00:22.003Z,62.10
2023-04-13T10:05:28.928Z,64.91
2023-04-13T10:10:31.579Z,65.71
2023-04-13T10:15:33.907Z,64.17
2023-04-13T10:20:37.145Z,68.31
2023-04-13T10:25:41.435Z,63.23
2023-04-13T10:30:43.759Z,61.46
2023-04-13T10:35:46.939Z,62.05
2023-04-13T10:40:50.352Z,56.15
2023-04-13T10:45:54.430Z,54.70
2023-04-13T10:50:57.133Z,57.79
2023-04-13T10:55:59.587Z,57.99
2023-04-13T11:01:03.252Z,57.38
2023-04-13T11:06:05.614Z,61.91
2023-04-13T11:16:17.597Z,57.50
2023-04-13T11:21:19.950Z,58.97
2023-04-13T11:26:24.833Z,60.99
2023-04-13T11:31:27.638Z,62.84
2023-04-13T11:36:32.256Z,64.40
2023-04-13T11:41:35.055Z,60.74
2023-04-13T11:46:37.909Z,62.18
2023-04-13T11:51:40.424Z,62.06
2023-04-13T11:56:42.875Z,63.14
2023-04-13T12:01:50.387Z,63.51
2023-04-13T12:06:56.192Z,62.02
2023-04-13T12:12:20.480Z,61.95
2023-04-13T12:22:27.332Z,62.60
2023-04-13T12:27:30.184Z,61.60
2023-04-13T12:32:32.538Z,61.29
2023-04-13T12:37:35.068Z,66.02
2023-04-13T12:42:37.728Z,65.46
2023-04-13T12:47:40.455Z,66.95
2023-04-13T12:52:42.825Z,72.74
2023-04-13T12:57:45.714Z,84.06
2023-04-13T13:02:52.159Z,95.14
2023-04-13T13:07:58.780Z,96.80
2023-04-13T13:13:03.805Z,100.00
2023-04-13T13:18:08.049Z,100.00
2023-04-13T13:23:10.433Z,100.00
2023-04-13T13:28:15.223Z,100.00
2023-04-13T13:33:18.075Z,100.00
2023-04-13T13:38:21.001Z,100.00
2023-04-13T13:43:23.755Z,100.00
2023-04-13T13:48:27.521Z,100.00
2023-04-13T13:53:31.713Z,100.00
2023-04-13T13:58:34.380Z,91.39
2023-04-13T14:03:37.451Z,94.73
2023-04-13T14:08:39.945Z,94.00
2023-04-13T14:13:42.711Z,83.59
2023-04-13T14:18:47.911Z,76.37
2023-04-13T14:23:51.905Z,74.67
2023-04-13T14:28:54.647Z,73.36
2023-04-13T14:33:57.299Z,73.49
2023-04-13T14:39:10.190Z,74.13
2023-04-13T14:44:14.014Z,72.47
2023-04-13T14:49:17.784Z,71.27
2023-04-13T14:54:29.625Z,77.75
2023-04-13T14:59:32.812Z,79.84
2023-04-13T15:04:37.376Z,79.84
2023-04-13T15:09:40.968Z,78.05
2023-04-13T15:14:46.795Z,83.75
2023-04-13T15:19:50.091Z,85.35
2023-04-13T15:24:53.064Z,84.89
2023-04-13T15:29:55.482Z,80.75
2023-04-13T15:34:58.271Z,78.99
2023-04-13T15:40:01.409Z,79.70
2023-04-13T15:45:10.398Z,83.02
2023-04-13T15:50:14.025Z,87.21
2023-04-13T15:55:17.187Z,88.57
2023-04-13T16:00:19.629Z,100.00
2023-04-13T16:05:22.821Z,100.00
2023-04-13T16:10:26.142Z,100.00
2023-04-13T16:15:28.953Z,97.22
2023-04-13T16:20:32.400Z,97.75
2023-04-13T16:25:35.291Z,100.00
2023-04-13T16:30:39.522Z,100.00
2023-04-13T16:35:46.050Z,100.00
2023-04-13T16:40:48.697Z,100.00
2023-04-13T16:45:51.517Z,100.00
2023-04-13T16:50:55.039Z,100.00
2023-04-13T16:55:58.384Z,100.00
2023-04-13T17:01:01.289Z,100.00
2023-04-13T17:06:03.820Z,100.00
2023-04-13T17:11:07.984Z,100.00
2023-04-13T17:16:10.883Z,100.00
2023-04-13T17:21:13.672Z,100.00
2023-04-13T17:26:16.829Z,100.00
2023-04-13T17:31:19.551Z,100.00
2023-04-13T17:36:22.916Z,100.00
2023-04-13T17:41:35.424Z,100.00
2023-04-13T17:46:38.084Z,100.00
2023-04-13T17:51:40.554Z,100.00
2023-04-13T17:56:47.923Z,100.00
2023-04-13T18:01:50.902Z,100.00
2023-04-13T18:06:56.488Z,100.00
2023-04-13T18:11:59.541Z,100.00
2023-04-13T18:17:02.188Z,100.00
2023-04-13T18:22:04.634Z,100.00
2023-04-13T18:27:07.985Z,100.00
2023-04-13T18:32:10.454Z,100.00
2023-04-13T18:37:12.895Z,100.00
2023-04-13T18:42:15.519Z,100.00
2023-04-13T18:47:19.397Z,100.00
2023-04-13T18:52:26.117Z,100.00
2023-04-13T18:57:30.460Z,100.00
2023-04-13T19:02:33.213Z,100.00
2023-04-13T19:07:36.821Z,100.00
2023-04-13T19:12:40.018Z,100.00
2023-04-13T19:17:43.920Z,100.00
2023-04-13T19:22:46.326Z,100.00
2023-04-13T19:27:50.085Z,100.00
2023-04-13T19:32:54.913Z,100.00
2023-04-13T19:37:57.309Z,100.00
2023-04-13T19:43:00.338Z,100.00
2023-04-13T19:48:03.037Z,100.00
2023-04-13T19:53:06.133Z,100.00
2023-04-13T19:58:09.878Z,100.00
2023-04-13T20:03:12.982Z,100.00
2023-04-13T20:08:16.534Z,100.00
2023-04-13T20:13:19.682Z,100.00
2023-04-13T20:18:24.032Z,100.00
2023-04-13T20:23:26.409Z,100.00
2023-04-13T20:28:33.220Z,100.00
2023-04-13T20:33:36.494Z,100.00
2023-04-13T20:38:42.689Z,100.00
2023-04-13T20:43:45.054Z,100.00
2023-04-13T20:48:51.218Z,100.00
2023-04-13T20:53:53.711Z,100.00
2023-04-13T20:58:57.856Z,100.00
2023-04-13T21:04:01.213Z,100.00
2023-04-13T21:09:05.479Z,100.00
2023-04-13T21:14:08.311Z,100.00
2023-04-13T21:19:10.651Z,100.00
2023-04-13T21:24:13.299Z,100.00
2023-04-13T21:29:19.996Z,100.00
2023-04-13T21:34:27.087Z,100.00
2023-04-13T21:39:29.656Z,100.00
2023-04-13T21:44:32.090Z,100.00
2023-04-13T21:49:34.414Z,100.00
2023-04-13T21:54:47.210Z,100.00
2023-04-13T21:59:50.485Z,100.00
2023-04-13T22:04:52.800Z,100.00
2023-04-13T22:09:55.648Z,100.00
2023-04-13T22:14:58.400Z,100.00
2023-04-13T22:20:01.671Z,100.00
2023-04-13T22:25:13.986Z,100.00
2023-04-13T22:30:16.661Z,100.00
2023-04-13T22:35:20.009Z,100.00
2023-04-13T22:40:32.332Z,100.00
2023-04-13T22:45:35.021Z,100.00
2023-04-13T22:50:38.716Z,100.00
2023-04-13T22:55:41.963Z,100.00
2023-04-13T23:00:44.594Z,100.00
2023-04-13T23:05:55.987Z,100.00
2023-04-13T23:10:58.521Z,100.00
2023-04-13T23:16:01.417Z,100.00
2023-04-13T23:21:13.522Z,100.00
2023-04-13T23:26:15.827Z,100.00
2023-04-13T23:31:18.189Z,100.00
2023-04-13T23:36:20.972Z,100.00
2023-04-13T23:41:23.653Z,100.00
2023-04-13T23:46:26.025Z,100.00
2023-04-13T23:51:29.345Z,100.00
2023-04-13T23:56:33.698Z,100.00
